Hattiesburg, MS

10:57 PM CST on December 02, 2016 (GMT -0600)
Woodhaven | | Change Station

Elev 374 ft 31.28 °N, 89.35 °W | Updated 29 seconds ago

Overcast
Overcast
51.8 °F
Feels Like 51.8 °F
N
0.0
Wind Variable Wind from WSW
Gusts 0.0 mph

Today
High -- | Low -- °F
--% Chance of Precip.
Yesterday
High -- | Low -- °F
Precip. -- in
Pressure 30.25 in
Visibility 10.0 miles
Clouds Scattered Clouds 12000 ft
Dew Point 45 °F
Humidity 78%
Rainfall 0.00 in
Snow Depth Not available.
6:39 AM 4:54 PM
Waxing Crescent, 12% visible
METAR KHBG 030453Z AUTO 00000KT 10SM -RA SCT120 10/08 A3025 RMK AO2 RAB09 SLP241 P0000 T01000078
Pressure 30.25 in
Visibility 10.0 miles
Clouds Scattered Clouds 12000 ft
Dew Point 45 °F
Humidity 78%
Rainfall 0.00 in
Snow Depth Not available.
6:39 AM 4:54 PM
Waxing Crescent, 12% visible
METAR KHBG 030453Z AUTO 00000KT 10SM -RA SCT120 10/08 A3025 RMK AO2 RAB09 SLP241 P0000 T01000078

10-Day Weather Forecast

Almanac

Astronomy

Dec. 02, 2016 Rise Set
Actual Time
Civil Twilight
Nautical Twilight
Astronomical Twilight
Moon
Length of Visible Light
Length of Day
Tomorrow will be .
, % of the Moon is Illuminated

Today's Extremes

State Highs State Lows

Community

WunderPhotos

Upload Photos

1,955,411 photos uploaded!

WunderBlog® & News

Nearby

Air Quality

  Air Quality AQ Index Pollutant
Not available.

Snow Depth

Station Depth Elevation

Earthquake Activity

City Distance Mag. Time & Date
Minimum magnitude displayed is 2.5.

Coastal Water Temperatures

Place Temperature

Stations

Nearby Weather Stations

Station Location Temp. Windchill Dew Point Humidity Wind Precip. Elev Updated Type
                   

Watches & Warnings

There are currently no watches in effect.